Time;durP1;ratioP1;P1;durP2;ratioP2;P2;SDS_P1;SDS_P2;PMS_P1;PMS_P2;Temp;Humidity;BMP_temperature;BMP_pressure;BME280_temperature;BME280_humidity;BME280_pressure;Samples;Min_cycle;Max_cycle;Signal;HPM_P1;HPM_P2
2021/12/11 00:01:07;;;;;;;68.43;30.38;;;4.90;99.90;;;;;;5050438;28;20035;-76
2021/12/11 00:03:38;;;;;;;63.40;29.13;;;4.90;99.90;;;;;;5050637;28;20024;-76
2021/12/11 00:06:17;;;;;;;65.40;29.92;;;4.90;99.90;;;;;;5050726;28;20107;-76
2021/12/11 00:08:45;;;;;;;61.78;29.08;;;4.90;99.90;;;;;;5050510;28;20035;-74
2021/12/11 00:11:13;;;;;;;56.38;27.20;;;4.90;99.90;;;;;;5050161;28;20037;-74
2021/12/11 00:13:40;;;;;;;58.28;27.83;;;4.90;99.90;;;;;;5050489;28;20033;-74
2021/12/11 00:16:12;;;;;;;61.75;28.67;;;4.90;99.90;;;;;;5041063;28;20471;-74
2021/12/11 00:18:39;;;;;;;62.53;28.98;;;4.90;99.90;;;;;;5030597;28;20029;-75
2021/12/11 00:21:14;;;;;;;75.30;30.98;;;4.90;99.90;;;;;;5029100;28;20029;-75
2021/12/11 00:24:17;;;;;;;66.38;31.48;;;4.90;99.90;;;;;;5030894;28;20029;-75
2021/12/11 00:26:47;;;;;;;61.08;29.10;;;5.00;99.90;;;;;;5030106;28;20134;-75
2021/12/11 00:29:18;;;;;;;64.57;29.77;;;5.00;99.90;;;;;;5030394;28;20454;-75
2021/12/11 00:31:47;;;;;;;62.58;28.52;;;5.00;99.90;;;;;;5029103;28;20065;-75
2021/12/11 00:34:16;;;;;;;66.38;28.73;;;5.00;99.90;;;;;;5030167;28;20112;-75
2021/12/11 00:36:59;;;;;;;66.63;29.35;;;5.00;99.90;;;;;;5030163;28;20383;-75
2021/12/11 00:39:26;;;;;;;64.07;28.45;;;5.00;99.90;;;;;;5030554;28;20029;-75
2021/12/11 00:41:55;;;;;;;61.88;28.33;;;5.00;99.90;;;;;;5030988;28;20032;-75
2021/12/11 00:44:36;;;;;;;63.63;29.33;;;5.00;99.90;;;;;;5031238;28;20056;-76
2021/12/11 00:47:12;;;;;;;61.53;28.90;;;5.00;99.90;;;;;;5032301;28;20108;-76
2021/12/11 00:49:46;;;;;;;63.17;28.48;;;5.00;99.90;;;;;;5033171;28;20059;-76
2021/12/11 00:52:12;;;;;;;64.25;28.40;;;5.00;99.90;;;;;;5033414;28;20406;-76
2021/12/11 00:54:45;;;;;;;60.85;27.65;;;5.00;99.90;;;;;;5034413;28;20486;-75
2021/12/11 00:57:20;;;;;;;63.40;28.65;;;5.00;99.90;;;;;;5034670;28;20490;-75
2021/12/11 00:59:47;;;;;;;65.78;30.40;;;5.00;99.90;;;;;;5034403;28;20036;-75
2021/12/11 01:02:13;;;;;;;65.55;30.00;;;5.00;99.90;;;;;;5034598;28;20462;-75
2021/12/11 01:04:41;;;;;;;58.75;28.05;;;5.10;99.90;;;;;;5034722;28;20057;-75
2021/12/11 01:07:19;;;;;;;63.65;29.13;;;5.00;99.90;;;;;;5034488;28;20018;-75
2021/12/11 01:09:51;;;;;;;70.25;29.48;;;5.10;99.90;;;;;;5031400;28;20030;-75
2021/12/11 01:12:51;;;;;;;63.45;28.58;;;5.10;99.90;;;;;;5029517;28;20025;-75
2021/12/11 01:15:27;;;;;;;67.95;29.60;;;5.00;99.90;;;;;;5036279;28;20390;-75
2021/12/11 01:20:35;;;;;;;62.88;29.63;;;5.10;99.90;;;;;;5049991;28;20022;-75
2021/12/11 01:23:16;;;;;;;61.55;28.05;;;5.10;99.90;;;;;;5048420;28;20029;-75
2021/12/11 01:25:42;;;;;;;67.45;28.85;;;5.10;99.90;;;;;;5049599;28;20025;-75
2021/12/11 01:28:08;;;;;;;66.78;29.20;;;5.10;99.90;;;;;;5049515;28;20317;-75
2021/12/11 01:30:39;;;;;;;64.07;28.25;;;5.10;99.90;;;;;;5049259;28;20489;-75
2021/12/11 01:33:07;;;;;;;69.35;29.10;;;5.10;99.90;;;;;;5050144;28;20109;-75
2021/12/11 01:35:33;;;;;;;63.67;28.38;;;5.10;99.90;;;;;;5050750;28;20049;-75
2021/12/11 01:38:02;;;;;;;61.53;29.00;;;5.10;99.90;;;;;;5049443;28;20064;-75
2021/12/11 01:40:32;;;;;;;66.93;29.20;;;5.10;99.90;;;;;;5064710;28;20032;-75
2021/12/11 01:43:00;;;;;;;68.70;30.80;;;5.10;99.90;;;;;;5049600;28;20365;-75
2021/12/11 01:45:26;;;;;;;73.13;34.70;;;5.10;99.90;;;;;;5049113;28;20136;-75
2021/12/11 01:47:51;;;;;;;80.70;34.90;;;5.10;99.90;;;;;;5049120;28;20029;-75
2021/12/11 01:50:32;;;;;;;79.72;33.92;;;5.10;99.90;;;;;;5049134;28;20035;-76
2021/12/11 01:53:03;;;;;;;82.45;33.25;;;5.00;99.90;;;;;;5049663;28;20025;-75
2021/12/11 01:55:45;;;;;;;80.05;33.10;;;5.00;99.90;;;;;;5047820;27;20064;-75
2021/12/11 01:58:13;;;;;;;71.03;31.05;;;5.00;99.90;;;;;;5049421;28;20372;-75
2021/12/11 02:00:47;;;;;;;69.15;31.83;;;5.00;99.90;;;;;;5049392;28;20100;-75
2021/12/11 02:03:18;;;;;;;63.78;30.92;;;5.00;99.90;;;;;;5049865;28;20030;-75
2021/12/11 02:05:44;;;;;;;73.47;30.42;;;5.00;99.90;;;;;;5049942;28;20390;-75
2021/12/11 02:08:17;;;;;;;69.22;31.60;;;5.00;99.90;;;;;;5049340;27;20401;-75
2021/12/11 02:10:54;;;;;;;71.40;32.20;;;5.00;99.90;;;;;;5049491;28;20034;-75
2021/12/11 02:13:35;;;;;;;66.18;30.70;;;4.90;99.90;;;;;;5049001;28;20025;-74
2021/12/11 02:16:02;;;;;;;73.78;31.95;;;4.90;99.90;;;;;;5040583;28;20041;-74
2021/12/11 02:18:36;;;;;;;79.93;33.10;;;4.90;99.90;;;;;;5028844;28;20049;-74
2021/12/11 02:21:11;;;;;;;78.63;32.40;;;4.90;99.90;;;;;;5029516;28;20375;-75
2021/12/11 02:23:37;;;;;;;71.82;32.10;;;4.90;99.90;;;;;;5027375;28;20083;-75
2021/12/11 02:26:16;;;;;;;73.80;31.08;;;4.90;99.90;;;;;;5028961;28;20064;-74
2021/12/11 02:28:54;;;;;;;74.25;32.35;;;4.80;99.90;;;;;;5028560;28;20053;-74
2021/12/11 02:31:19;;;;;;;75.15;31.17;;;4.80;99.90;;;;;;5028535;28;20025;-74
2021/12/11 02:33:53;;;;;;;76.22;31.50;;;4.80;99.90;;;;;;5027237;28;20029;-75
2021/12/11 02:36:32;;;;;;;72.65;31.35;;;4.80;99.90;;;;;;5028547;28;20070;-74
2021/12/11 02:39:22;;;;;;;72.40;30.80;;;4.80;99.90;;;;;;5028526;28;20022;-74
2021/12/11 02:41:55;;;;;;;75.38;31.83;;;4.70;99.90;;;;;;5028553;28;20017;-74
2021/12/11 02:44:38;;;;;;;67.65;29.15;;;4.70;99.90;;;;;;5029710;28;20152;-74
2021/12/11 02:47:22;;;;;;;67.63;29.98;;;4.70;99.90;;;;;;5034228;28;20025;-74
2021/12/11 02:49:56;;;;;;;71.13;31.13;;;4.70;99.90;;;;;;5048714;28;20029;-74
2021/12/11 02:52:40;;;;;;;72.88;29.98;;;4.70;99.90;;;;;;5048036;28;20029;-74
2021/12/11 02:55:26;;;;;;;68.93;30.25;;;4.70;99.90;;;;;;5047994;28;20467;-75
2021/12/11 02:57:57;;;;;;;67.55;29.90;;;4.60;99.90;;;;;;5048167;28;20025;-75
2021/12/11 03:00:34;;;;;;;68.45;28.38;;;4.60;99.90;;;;;;5047768;28;20108;-75
2021/12/11 03:03:06;;;;;;;66.22;29.60;;;4.70;99.90;;;;;;5046482;28;20074;-75
2021/12/11 03:05:44;;;;;;;66.75;28.27;;;4.60;99.90;;;;;;5047936;28;20029;-75
2021/12/11 03:08:14;;;;;;;72.88;29.73;;;4.60;99.90;;;;;;5047694;28;20048;-75
2021/12/11 03:10:41;;;;;;;67.30;29.95;;;4.60;99.90;;;;;;5047529;28;20104;-75
2021/12/11 03:13:07;;;;;;;63.83;28.00;;;4.60;99.90;;;;;;5047522;28;20405;-75
2021/12/11 03:15:34;;;;;;;67.10;28.52;;;4.60;99.90;;;;;;5047640;28;20057;-75
2021/12/11 03:18:05;;;;;;;59.17;26.65;;;4.60;99.90;;;;;;5047579;28;20097;-75
2021/12/11 03:20:32;;;;;;;65.05;26.83;;;4.60;99.90;;;;;;5048051;28;20040;-75
2021/12/11 03:22:59;;;;;;;62.25;27.48;;;4.60;99.90;;;;;;5062681;28;20115;-75
2021/12/11 03:25:27;;;;;;;64.90;27.58;;;4.50;99.90;;;;;;5047519;28;20036;-75
2021/12/11 03:27:53;;;;;;;64.07;27.33;;;4.50;99.90;;;;;;5047216;28;20201;-75
2021/12/11 03:30:25;;;;;;;65.55;27.63;;;4.50;99.90;;;;;;5047308;28;20029;-75
2021/12/11 03:32:55;;;;;;;65.90;27.30;;;4.50;99.90;;;;;;5047511;28;20033;-74
2021/12/11 03:35:21;;;;;;;67.07;27.40;;;4.50;99.90;;;;;;5046709;28;20037;-73
2021/12/11 03:37:47;;;;;;;66.00;27.25;;;4.50;99.90;;;;;;5047371;28;20029;-74
2021/12/11 03:40:13;;;;;;;63.97;27.85;;;4.50;99.90;;;;;;5047281;28;20043;-74
2021/12/11 03:42:41;;;;;;;66.78;27.17;;;4.60;99.90;;;;;;5047366;28;20017;-74
2021/12/11 03:45:15;;;;;;;68.50;27.30;;;4.60;99.90;;;;;;5047161;28;20165;-75
2021/12/11 03:47:48;;;;;;;67.85;28.25;;;4.60;99.90;;;;;;5047391;28;20028;-75
2021/12/11 03:50:16;;;;;;;61.95;25.75;;;4.60;99.90;;;;;;5046860;28;20025;-74
2021/12/11 03:52:43;;;;;;;67.22;27.45;;;4.60;99.90;;;;;;5047179;28;20025;-74
2021/12/11 03:55:10;;;;;;;61.20;26.30;;;4.70;99.90;;;;;;5047003;28;20018;-75
2021/12/11 03:57:37;;;;;;;63.78;26.23;;;4.70;99.90;;;;;;5047154;28;20389;-75
2021/12/11 04:00:05;;;;;;;56.15;25.52;;;4.70;99.90;;;;;;5046988;28;20439;-75
2021/12/11 04:02:34;;;;;;;58.15;25.35;;;4.70;99.90;;;;;;5046837;28;20025;-74
2021/12/11 04:05:04;;;;;;;57.63;25.52;;;4.70;99.90;;;;;;5046911;28;20530;-73
2021/12/11 04:07:36;;;;;;;60.47;24.58;;;4.70;99.90;;;;;;5047004;28;20397;-74
2021/12/11 04:10:05;;;;;;;59.10;24.83;;;4.70;99.90;;;;;;5046851;28;20041;-76
2021/12/11 04:12:31;;;;;;;55.58;24.88;;;4.70;99.90;;;;;;5047287;28;20025;-74
2021/12/11 04:14:57;;;;;;;58.83;25.15;;;4.70;99.90;;;;;;5045640;28;20351;-74
2021/12/11 04:17:25;;;;;;;62.97;25.27;;;4.80;99.90;;;;;;5027292;27;20030;-75
2021/12/11 04:19:55;;;;;;;60.30;24.08;;;4.80;99.90;;;;;;5026976;28;20048;-74
2021/12/11 04:22:21;;;;;;;49.83;23.00;;;4.80;99.90;;;;;;5026948;28;20434;-74
2021/12/11 04:24:48;;;;;;;53.05;23.15;;;4.80;99.90;;;;;;5026793;28;20100;-74
2021/12/11 04:27:17;;;;;;;57.70;22.63;;;4.90;99.90;;;;;;5083447;28;20139;-74
2021/12/11 04:29:44;;;;;;;53.63;22.80;;;4.90;99.90;;;;;;5110030;28;20045;-74
2021/12/11 04:32:10;;;;;;;49.50;21.92;;;4.90;99.90;;;;;;5108976;27;20020;-74
2021/12/11 04:34:36;;;;;;;53.78;21.83;;;4.80;99.90;;;;;;5110187;28;20123;-75
2021/12/11 04:37:14;;;;;;;46.45;19.95;;;4.80;99.90;;;;;;5110224;28;20099;-74
2021/12/11 04:39:43;;;;;;;46.90;20.63;;;4.90;99.90;;;;;;5110209;28;20358;-74
2021/12/11 04:42:45;;;;;;;53.10;20.63;;;4.90;99.90;;;;;;5110135;28;20050;-74
2021/12/11 04:44:57;;;;;;;47.70;19.20;;;4.90;99.90;;;;;;5109597;28;20088;-75
2021/12/11 04:47:34;;;;;;;39.05;15.68;;;4.90;99.90;;;;;;5113645;28;20415;-75
2021/12/11 04:50:07;;;;;;;31.27;11.38;;;4.90;99.90;;;;;;5113930;27;20027;-74
2021/12/11 04:52:37;;;;;;;30.08;9.15;;;4.90;99.90;;;;;;5113793;28;20051;-74
2021/12/11 05:08:58;;;;;;;21.40;2.88;;;5.50;99.90;;;;;;5113688;28;20310;-74
2021/12/11 05:11:06;;;;;;;23.80;2.60;;;5.50;99.90;;;;;;5112814;28;20450;-74
2021/12/11 05:13:33;;;;;;;24.00;2.83;;;5.60;99.90;;;;;;5113299;28;20041;-74
2021/12/11 05:16:07;;;;;;;23.30;2.15;;;5.70;99.90;;;;;;5121512;27;20019;-74
2021/12/11 05:18:34;;;;;;;38.45;2.85;;;5.80;99.90;;;;;;5133873;27;20023;-76
2021/12/11 05:21:12;;;;;;;23.23;2.03;;;5.80;99.90;;;;;;5133714;27;20051;-75
2021/12/11 05:23:38;;;;;;;20.65;2.00;;;5.90;99.90;;;;;;5133768;27;20400;-74
2021/12/11 05:26:05;;;;;;;15.73;2.55;;;6.00;99.90;;;;;;5115299;27;20049;-74
2021/12/11 05:28:31;;;;;;;18.05;2.28;;;6.10;99.90;;;;;;5049556;28;20351;-74
2021/12/11 05:31:00;;;;;;;19.30;2.10;;;6.20;99.90;;;;;;5049289;28;20029;-75
2021/12/11 05:33:26;;;;;;;16.92;2.17;;;6.20;99.90;;;;;;5049237;28;20025;-74
2021/12/11 05:35:54;;;;;;;14.68;2.17;;;6.30;99.90;;;;;;5049295;28;20534;-75
2021/12/11 05:38:21;;;;;;;17.33;1.75;;;6.40;99.90;;;;;;5048878;28;20076;-74
2021/12/11 05:40:52;;;;;;;17.65;2.00;;;6.50;99.90;;;;;;5049324;28;20078;-74
2021/12/11 05:43:18;;;;;;;20.27;2.42;;;6.60;99.90;;;;;;5049137;28;20072;-74
2021/12/11 05:45:44;;;;;;;19.60;1.70;;;6.70;99.90;;;;;;5049052;28;20545;-74
2021/12/11 05:48:10;;;;;;;14.52;1.75;;;6.60;99.90;;;;;;5049114;28;20146;-74
2021/12/11 05:50:42;;;;;;;16.52;1.88;;;6.70;99.90;;;;;;5048881;28;20077;-74
2021/12/11 05:53:08;;;;;;;14.48;2.10;;;6.70;99.90;;;;;;5048888;28;20033;-73
2021/12/11 05:55:35;;;;;;;20.80;2.58;;;6.80;99.90;;;;;;5049234;28;20044;-74
2021/12/11 05:58:10;;;;;;;20.63;2.20;;;6.80;99.90;;;;;;5064088;28;20386;-74
2021/12/11 06:00:48;;;;;;;15.45;1.70;;;6.80;99.90;;;;;;5049038;28;20047;-73
2021/12/11 06:03:14;;;;;;;17.10;2.10;;;6.80;99.90;;;;;;5048731;28;20051;-74
2021/12/11 06:05:41;;;;;;;14.52;1.77;;;6.80;99.90;;;;;;5049041;28;20032;-74
2021/12/11 06:08:08;;;;;;;14.02;2.25;;;6.80;99.90;;;;;;5048723;28;20386;-74
2021/12/11 06:10:34;;;;;;;21.02;2.28;;;6.80;99.90;;;;;;5048996;28;20032;-74
2021/12/11 06:13:01;;;;;;;15.02;1.92;;;6.80;99.90;;;;;;5048462;28;20074;-74
2021/12/11 06:15:28;;;;;;;14.43;1.98;;;6.80;99.90;;;;;;5044740;28;20013;-77
2021/12/11 06:17:54;;;;;;;12.77;1.65;;;6.90;99.90;;;;;;5028922;28;20033;-75
2021/12/11 06:20:25;;;;;;;10.63;1.40;;;6.90;99.90;;;;;;5027649;28;20086;-75
2021/12/11 06:22:51;;;;;;;12.70;1.75;;;6.90;99.90;;;;;;5028368;28;20104;-74
2021/12/11 06:25:24;;;;;;;12.20;1.38;;;6.90;99.90;;;;;;5028458;28;20059;-75
2021/12/11 06:27:50;;;;;;;8.60;1.17;;;6.90;99.90;;;;;;5028367;28;20114;-75
2021/12/11 06:30:16;;;;;;;8.93;1.50;;;6.90;99.90;;;;;;5028344;28;20022;-75
2021/12/11 06:32:43;;;;;;;8.82;1.60;;;6.90;99.90;;;;;;5028498;28;20528;-75
2021/12/11 06:35:26;;;;;;;7.55;1.10;;;6.90;99.90;;;;;;5027065;28;20018;-74
2021/12/11 06:37:52;;;;;;;9.68;1.52;;;6.80;99.90;;;;;;5027152;28;20427;-75
2021/12/11 06:40:18;;;;;;;6.78;1.30;;;6.80;99.90;;;;;;5028751;28;20117;-75
2021/12/11 06:42:44;;;;;;;7.30;1.38;;;6.80;99.90;;;;;;5028178;28;20025;-75
2021/12/11 06:45:10;;;;;;;8.35;1.30;;;6.80;99.90;;;;;;5028628;28;20027;-75
2021/12/11 06:47:35;;;;;;;4.40;1.17;;;6.80;99.90;;;;;;5028203;28;20096;-75
2021/12/11 06:50:04;;;;;;;12.15;1.20;;;6.80;99.90;;;;;;5028054;28;20017;-75
2021/12/11 06:52:29;;;;;;;11.98;1.65;;;6.80;99.90;;;;;;5028052;28;20398;-75
2021/12/11 06:54:55;;;;;;;7.22;1.05;;;6.80;99.90;;;;;;5028109;28;20025;-75
2021/12/11 06:57:21;;;;;;;7.28;1.45;;;6.80;99.90;;;;;;5027885;28;20444;-74
2021/12/11 06:59:47;;;;;;;8.10;1.02;;;6.80;99.90;;;;;;5027962;28;20397;-75
2021/12/11 07:02:15;;;;;;;8.48;1.55;;;6.80;99.90;;;;;;5027936;28;20017;-75
2021/12/11 07:04:41;;;;;;;9.80;1.13;;;6.80;99.90;;;;;;5028078;28;20053;-74
2021/12/11 07:07:07;;;;;;;7.97;1.23;;;6.80;99.90;;;;;;5027941;28;20056;-75
2021/12/11 07:09:33;;;;;;;8.43;1.40;;;6.90;99.90;;;;;;5027107;28;20029;-74
2021/12/11 07:11:59;;;;;;;12.35;1.77;;;6.90;99.90;;;;;;5027777;28;20036;-75
2021/12/11 07:14:29;;;;;;;8.93;1.40;;;6.90;99.90;;;;;;5028686;28;20033;-75
2021/12/11 07:16:55;;;;;;;12.05;1.95;;;6.90;99.90;;;;;;5043409;28;20108;-75
2021/12/11 07:19:21;;;;;;;7.10;1.20;;;6.90;99.90;;;;;;5046199;28;20021;-75
2021/12/11 07:21:50;;;;;;;13.20;1.40;;;6.90;99.90;;;;;;5042340;28;20087;-76
2021/12/11 07:24:23;;;;;;;9.82;1.30;;;6.90;99.90;;;;;;5025986;28;20025;-75
2021/12/11 07:26:49;;;;;;;7.72;1.50;;;6.90;99.90;;;;;;5025807;28;20045;-73
2021/12/11 07:29:19;;;;;;;12.55;1.65;;;6.90;99.90;;;;;;5029127;28;20036;-75
2021/12/11 07:31:47;;;;;;;7.20;1.35;;;7.00;99.90;;;;;;5026833;28;20033;-75
2021/12/11 07:34:15;;;;;;;8.20;1.23;;;7.00;99.90;;;;;;5027732;28;20065;-75
2021/12/11 07:36:41;;;;;;;8.82;1.15;;;7.00;99.90;;;;;;5027462;28;20505;-75
2021/12/11 07:39:11;;;;;;;10.43;1.30;;;6.90;99.90;;;;;;5027270;28;20561;-76
2021/12/11 07:41:37;;;;;;;7.38;1.40;;;6.90;99.90;;;;;;5027455;28;20512;-74
2021/12/11 07:44:03;;;;;;;10.57;1.98;;;6.90;99.90;;;;;;5026827;28;20105;-74
2021/12/11 07:46:30;;;;;;;7.43;1.60;;;6.90;99.90;;;;;;5031889;28;20081;-74
2021/12/11 07:48:59;;;;;;;8.20;1.95;;;7.00;99.90;;;;;;5028693;28;20052;-74
2021/12/11 07:51:27;;;;;;;13.60;3.10;;;6.90;99.90;;;;;;5025963;28;20610;-74
2021/12/11 07:53:54;;;;;;;13.13;3.55;;;6.90;99.90;;;;;;5030781;28;20417;-74
2021/12/11 07:56:21;;;;;;;13.65;4.10;;;6.90;99.90;;;;;;5029518;28;20021;-74
2021/12/11 07:58:48;;;;;;;13.05;3.70;;;6.90;99.90;;;;;;5026650;28;20078;-74
2021/12/11 08:01:15;;;;;;;17.15;4.80;;;6.90;99.90;;;;;;5027003;28;20378;-76
2021/12/11 08:03:42;;;;;;;14.40;4.72;;;6.90;99.90;;;;;;5120624;27;20585;-75
2021/12/11 08:06:10;;;;;;;18.13;4.47;;;6.90;99.90;;;;;;5026061;28;20033;-75
2021/12/11 08:08:37;;;;;;;14.57;4.70;;;6.90;99.90;;;;;;5026819;28;20132;-75
2021/12/11 08:11:11;;;;;;;16.80;4.97;;;6.80;99.90;;;;;;5027341;28;20033;-75
2021/12/11 08:13:37;;;;;;;14.03;5.33;;;6.80;99.90;;;;;;5027239;28;20025;-75
2021/12/11 08:16:04;;;;;;;15.95;5.25;;;6.80;99.90;;;;;;5035608;28;20032;-75
2021/12/11 08:18:30;;;;;;;13.40;6.10;;;6.80;99.90;;;;;;5045412;28;20140;-75
2021/12/11 08:20:56;;;;;;;22.52;6.72;;;6.80;99.90;;;;;;5049024;27;20475;-76
2021/12/11 08:23:22;;;;;;;20.65;7.70;;;6.80;99.90;;;;;;5050046;28;20025;-75
2021/12/11 08:25:49;;;;;;;27.80;7.80;;;6.80;99.90;;;;;;5050043;28;20072;-75
2021/12/11 08:28:19;;;;;;;21.08;7.28;;;6.70;99.90;;;;;;5041610;28;20470;-75
2021/12/11 08:30:49;;;;;;;20.92;7.55;;;6.80;99.90;;;;;;5028733;28;20433;-75
2021/12/11 08:33:16;;;;;;;23.13;8.02;;;6.70;99.90;;;;;;5029986;28;20017;-75
2021/12/11 08:35:43;;;;;;;21.83;8.38;;;6.70;99.90;;;;;;5031632;28;20125;-76
2021/12/11 08:38:09;;;;;;;20.52;7.90;;;6.70;99.90;;;;;;5030015;28;20059;-75
2021/12/11 08:40:39;;;;;;;20.70;7.95;;;6.70;99.90;;;;;;5029992;28;20108;-75
2021/12/11 08:43:08;;;;;;;28.38;8.77;;;6.70;99.90;;;;;;5030276;28;20598;-76
2021/12/11 08:45:50;;;;;;;20.65;8.38;;;6.70;99.90;;;;;;5031234;28;20049;-75
2021/12/11 08:48:21;;;;;;;25.33;9.88;;;6.70;99.90;;;;;;5031628;28;20101;-77
2021/12/11 08:50:53;;;;;;;33.55;10.50;;;6.60;99.90;;;;;;5031181;28;20025;-75
2021/12/11 08:53:20;;;;;;;27.65;9.40;;;6.60;99.90;;;;;;5029940;28;20033;-76
2021/12/11 08:55:48;;;;;;;21.55;9.70;;;6.60;99.90;;;;;;5029825;28;20117;-76
2021/12/11 08:58:17;;;;;;;21.05;9.50;;;6.60;99.90;;;;;;5029890;28;20067;-75
2021/12/11 09:00:47;;;;;;;24.10;9.68;;;6.60;99.90;;;;;;5028362;28;20472;-76
2021/12/11 09:03:36;;;;;;;20.60;9.13;;;6.60;99.90;;;;;;5029668;28;20055;-75
2021/12/11 09:06:10;;;;;;;21.80;8.75;;;6.50;99.90;;;;;;5028441;28;20041;-75
2021/12/11 09:08:58;;;;;;;27.90;10.30;;;6.50;99.90;;;;;;5029688;28;20516;-74
2021/12/11 09:11:29;;;;;;;22.33;10.30;;;6.40;99.90;;;;;;5029476;28;20128;-75
2021/12/11 09:14:16;;;;;;;24.45;9.45;;;6.40;99.90;;;;;;5043974;28;20390;-74
2021/12/11 09:16:47;;;;;;;26.92;11.07;;;6.30;99.90;;;;;;5029669;28;20454;-75
2021/12/11 09:19:24;;;;;;;24.00;10.85;;;6.30;99.90;;;;;;5029402;28;20030;-74
2021/12/11 09:22:14;;;;;;;32.42;11.60;;;6.30;99.90;;;;;;5029629;28;20547;-77
2021/12/11 09:24:48;;;;;;;26.05;11.52;;;6.40;99.90;;;;;;5029380;28;20025;-74
2021/12/11 09:27:22;;;;;;;28.40;11.25;;;6.40;99.90;;;;;;5044661;28;20448;-75
2021/12/11 09:29:50;;;;;;;29.83;11.43;;;6.40;99.90;;;;;;5029189;28;20030;-75
2021/12/11 09:32:39;;;;;;;26.38;13.02;;;6.50;99.90;;;;;;5028498;28;20033;-74
2021/12/11 09:35:12;;;;;;;26.63;12.77;;;6.50;99.90;;;;;;5044217;28;20033;-75
2021/12/11 09:37:42;;;;;;;40.65;16.25;;;6.60;99.90;;;;;;5049078;28;20033;-75
2021/12/11 09:40:11;;;;;;;35.00;14.48;;;6.60;99.90;;;;;;5048850;28;20037;-75
2021/12/11 09:42:36;;;;;;;36.88;15.07;;;6.70;99.90;;;;;;5049147;27;20050;-74
2021/12/11 09:45:13;;;;;;;43.55;15.57;;;6.80;99.90;;;;;;5049164;27;20021;-74
2021/12/11 09:47:44;;;;;;;45.85;19.08;;;6.80;99.90;;;;;;5049039;28;20086;-75
2021/12/11 09:50:16;;;;;;;46.13;17.90;;;6.90;99.90;;;;;;5049755;28;20025;-76
2021/12/11 09:52:45;;;;;;;40.67;14.60;;;6.90;99.90;;;;;;5050398;28;20022;-77
2021/12/11 09:55:23;;;;;;;35.10;12.75;;;7.00;99.90;;;;;;5048922;28;20508;-75
2021/12/11 09:57:53;;;;;;;34.05;13.48;;;7.10;99.90;;;;;;5048895;28;20053;-75
2021/12/11 10:00:23;;;;;;;30.98;12.73;;;7.10;99.90;;;;;;5049016;28;20064;-76
2021/12/11 10:02:49;;;;;;;28.27;13.05;;;7.10;99.90;;;;;;5048784;28;20021;-75
2021/12/11 10:05:31;;;;;;;37.17;12.90;;;7.10;99.90;;;;;;5048964;28;20105;-79
2021/12/11 10:08:27;;;;;;;40.42;15.13;;;7.20;99.90;;;;;;5049258;28;20101;-78
2021/12/11 10:11:01;;;;;;;38.25;14.23;;;7.30;99.90;;;;;;5048621;28;20112;-75
2021/12/11 10:13:27;;;;;;;31.08;13.05;;;7.30;99.90;;;;;;5033135;27;20569;-75
2021/12/11 10:15:53;;;;;;;31.55;13.82;;;7.30;99.90;;;;;;5028680;28;20417;-74
2021/12/11 10:18:24;;;;;;;35.35;13.73;;;7.30;99.90;;;;;;5043856;28;20039;-74
2021/12/11 10:21:11;;;;;;;31.70;13.35;;;7.30;99.90;;;;;;5043532;28;20414;-74
2021/12/11 10:23:39;;;;;;;25.75;11.90;;;7.30;99.90;;;;;;5028382;28;20059;-74
2021/12/11 10:26:10;;;;;;;32.53;12.88;;;7.30;99.90;;;;;;5026748;28;20391;-74
2021/12/11 10:28:39;;;;;;;26.95;12.02;;;7.30;99.90;;;;;;5028114;28;20545;-74
2021/12/11 10:31:09;;;;;;;31.73;12.48;;;7.30;99.90;;;;;;5031081;28;20386;-74
2021/12/11 10:33:36;;;;;;;32.95;12.70;;;7.30;99.90;;;;;;5028935;28;20120;-73
2021/12/11 10:36:07;;;;;;;33.90;12.68;;;7.40;99.90;;;;;;5027063;28;20096;-74
2021/12/11 10:38:33;;;;;;;24.77;11.65;;;7.40;99.90;;;;;;5028478;28;20013;-72
2021/12/11 10:41:00;;;;;;;35.47;12.48;;;7.50;99.90;;;;;;5035025;28;20037;-73
2021/12/11 10:43:36;;;;;;;34.20;13.45;;;7.50;99.90;;;;;;5032645;28;20053;-74
2021/12/11 10:46:05;;;;;;;34.10;13.80;;;7.50;99.90;;;;;;5039139;28;20386;-69
2021/12/11 10:48:34;;;;;;;31.65;12.35;;;7.60;99.90;;;;;;5027034;28;20045;-70
2021/12/11 10:51:24;;;;;;;29.58;12.70;;;7.60;99.90;;;;;;5026935;28;20033;-70
2021/12/11 10:53:51;;;;;;;33.92;12.38;;;7.70;99.90;;;;;;5030380;28;20045;-71
2021/12/11 10:56:19;;;;;;;30.33;11.45;;;7.80;99.90;;;;;;5032491;28;20053;-70
2021/12/11 10:58:49;;;;;;;30.80;11.45;;;7.80;99.90;;;;;;5030683;28;20062;-71
2021/12/11 11:01:17;;;;;;;28.27;10.95;;;7.80;99.90;;;;;;5031772;28;20386;-69
2021/12/11 11:03:49;;;;;;;29.27;9.98;;;7.80;99.90;;;;;;5033989;28;20018;-72
2021/12/11 11:06:15;;;;;;;27.58;10.10;;;7.90;99.90;;;;;;5034331;28;20020;-76
2021/12/11 11:08:42;;;;;;;26.77;8.35;;;7.90;99.90;;;;;;5038960;28;20025;-69
2021/12/11 11:11:12;;;;;;;22.08;6.43;;;7.90;99.90;;;;;;5044080;28;20021;-70
2021/12/11 11:13:38;;;;;;;23.52;6.28;;;7.90;99.90;;;;;;5038031;28;20029;-72
2021/12/11 11:16:05;;;;;;;26.08;6.13;;;7.90;99.90;;;;;;5042076;28;20029;-69
2021/12/11 11:18:31;;;;;;;19.15;5.75;;;7.90;99.90;;;;;;5040552;28;20021;-68
2021/12/11 11:21:02;;;;;;;21.00;4.70;;;7.90;99.90;;;;;;5050149;28;20241;-71
2021/12/11 11:23:28;;;;;;;15.82;3.53;;;7.90;99.90;;;;;;5041374;28;20022;-69
2021/12/11 11:25:57;;;;;;;20.33;3.60;;;7.90;99.90;;;;;;5046386;28;20070;-71
2021/12/11 11:28:26;;;;;;;21.38;3.65;;;8.00;99.90;;;;;;5045048;28;20050;-69
2021/12/11 11:30:59;;;;;;;22.58;3.92;;;8.10;99.90;;;;;;5051343;28;20032;-69
2021/12/11 11:33:27;;;;;;;14.35;3.28;;;8.20;99.90;;;;;;5041083;28;20022;-70
2021/12/11 11:35:53;;;;;;;16.33;3.45;;;8.30;99.90;;;;;;5054076;28;20025;-70
2021/12/11 11:38:23;;;;;;;18.73;3.35;;;8.40;99.90;;;;;;5057580;28;20037;-70
2021/12/11 11:40:54;;;;;;;17.40;3.20;;;8.40;99.90;;;;;;5053232;27;20085;-70
2021/12/11 11:43:21;;;;;;;15.00;2.85;;;8.40;99.90;;;;;;5039868;28;20034;-70
2021/12/11 11:45:52;;;;;;;23.13;3.15;;;8.40;99.90;;;;;;5041561;28;20029;-70
2021/12/11 11:48:25;;;;;;;20.63;2.47;;;8.40;99.90;;;;;;5041664;28;20022;-70
2021/12/11 11:50:53;;;;;;;19.02;2.45;;;8.40;99.90;;;;;;5038636;28;20026;-70
2021/12/11 11:53:24;;;;;;;14.68;2.60;;;8.40;99.90;;;;;;5040361;28;20017;-70
2021/12/11 11:55:56;;;;;;;15.35;2.97;;;8.40;99.90;;;;;;5031172;28;20030;-73
2021/12/11 11:58:22;;;;;;;19.15;3.40;;;8.50;99.90;;;;;;5039654;28;20096;-73
2021/12/11 12:00:52;;;;;;;18.60;2.78;;;8.50;99.90;;;;;;5035598;28;20041;-73
2021/12/11 12:03:22;;;;;;;20.50;3.03;;;8.50;99.90;;;;;;5040923;27;20026;-73
2021/12/11 12:05:51;;;;;;;19.98;3.30;;;8.60;99.90;;;;;;5036051;28;20033;-73
2021/12/11 12:08:17;;;;;;;15.55;3.03;;;8.60;99.90;;;;;;5041026;28;20024;-73
2021/12/11 12:10:45;;;;;;;16.17;2.90;;;8.60;99.90;;;;;;5041884;28;20029;-73
2021/12/11 12:13:11;;;;;;;19.60;3.47;;;8.60;99.90;;;;;;5030702;28;20028;-73
2021/12/11 12:15:53;;;;;;;17.98;2.60;;;8.60;99.90;;;;;;5034878;28;20032;-73
2021/12/11 12:18:21;;;;;;;17.77;3.05;;;8.60;99.90;;;;;;5033100;28;20037;-73
2021/12/11 12:20:48;;;;;;;17.98;3.03;;;8.60;99.90;;;;;;5034486;28;20420;-73
2021/12/11 12:23:15;;;;;;;22.33;3.30;;;8.60;99.90;;;;;;5030400;28;20116;-74
2021/12/11 12:25:44;;;;;;;16.88;3.47;;;8.60;99.90;;;;;;5032235;28;20026;-73
2021/12/11 12:28:11;;;;;;;16.48;2.63;;;8.60;99.90;;;;;;5042781;28;20620;-73
2021/12/11 12:30:47;;;;;;;17.60;3.30;;;8.60;99.90;;;;;;5037164;28;20433;-72
2021/12/11 12:33:15;;;;;;;18.73;3.08;;;8.60;99.90;;;;;;5060970;28;20029;-73
2021/12/11 12:35:42;;;;;;;18.10;3.15;;;8.60;99.90;;;;;;5032060;28;20022;-73
2021/12/11 12:38:10;;;;;;;23.08;4.10;;;8.70;99.90;;;;;;5031544;28;20374;-72
2021/12/11 12:40:49;;;;;;;18.98;3.60;;;8.70;99.90;;;;;;5028790;28;20116;-72
2021/12/11 12:43:53;;;;;;;18.00;2.95;;;8.70;99.90;;;;;;5029867;27;20075;-72
2021/12/11 12:46:09;;;;;;;15.02;3.15;;;8.70;99.90;;;;;;5028748;28;20025;-73
2021/12/11 12:48:36;;;;;;;20.55;3.45;;;8.60;99.90;;;;;;5028669;28;20029;-73
2021/12/11 12:51:06;;;;;;;18.65;3.15;;;8.60;99.90;;;;;;5028598;28;20021;-73
2021/12/11 12:53:34;;;;;;;9.95;2.70;;;8.50;99.90;;;;;;5030674;28;20071;-73
2021/12/11 12:56:15;;;;;;;14.60;2.85;;;8.40;99.90;;;;;;5030739;28;20013;-73
2021/12/11 12:58:54;;;;;;;14.50;3.63;;;8.40;99.90;;;;;;5031288;28;20030;-73
2021/12/11 13:01:49;;;;;;;16.75;3.53;;;8.40;99.90;;;;;;5028583;28;20092;-73
2021/12/11 13:04:19;;;;;;;17.43;5.37;;;8.50;99.90;;;;;;5028266;28;20089;-73
2021/12/11 13:06:51;;;;;;;19.42;3.47;;;8.50;99.90;;;;;;5027430;28;20022;-72
2021/12/11 13:09:43;;;;;;;14.85;3.53;;;8.50;99.90;;;;;;5027327;28;20025;-74
2021/12/11 13:12:14;;;;;;;13.95;3.30;;;8.40;99.90;;;;;;5024862;28;20124;-74
2021/12/11 13:14:41;;;;;;;16.42;3.85;;;8.40;99.90;;;;;;5026921;28;20131;-72
2021/12/11 13:17:12;;;;;;;16.80;3.17;;;8.30;99.90;;;;;;5029280;28;20486;-72